sensor_id;sensor_type;location;lat;lon;timestamp;P1;durP1;ratioP1;P2;durP2;ratioP2
16699;SDS011;8466;52.286;21.124;2023-06-24T00:00:12;4.95;;;4.10;;
16699;SDS011;8466;52.286;21.124;2023-06-24T00:02:42;4.45;;;4.05;;
16699;SDS011;8466;52.286;21.124;2023-06-24T00:05:12;4.68;;;4.03;;
16699;SDS011;8466;52.286;21.124;2023-06-24T00:07:41;4.15;;;3.67;;
16699;SDS011;8466;52.286;21.124;2023-06-24T00:10:13;5.38;;;4.15;;
16699;SDS011;8466;52.286;21.124;2023-06-24T00:12:44;4.88;;;3.85;;
16699;SDS011;8466;52.286;21.124;2023-06-24T00:15:13;4.45;;;4.05;;
16699;SDS011;8466;52.286;21.124;2023-06-24T00:17:42;4.05;;;3.67;;
16699;SDS011;8466;52.286;21.124;2023-06-24T00:20:11;5.72;;;4.13;;
16699;SDS011;8466;52.286;21.124;2023-06-24T00:22:41;4.10;;;3.80;;
16699;SDS011;8466;52.286;21.124;2023-06-24T00:25:11;4.10;;;3.70;;
16699;SDS011;8466;52.286;21.124;2023-06-24T00:27:41;4.63;;;4.22;;
16699;SDS011;8466;52.286;21.124;2023-06-24T00:30:10;4.95;;;4.35;;
16699;SDS011;8466;52.286;21.124;2023-06-24T00:32:40;4.43;;;4.03;;
16699;SDS011;8466;52.286;21.124;2023-06-24T00:35:09;4.50;;;4.10;;
16699;SDS011;8466;52.286;21.124;2023-06-24T00:37:38;4.13;;;3.78;;
16699;SDS011;8466;52.286;21.124;2023-06-24T00:40:08;5.40;;;4.07;;
16699;SDS011;8466;52.286;21.124;2023-06-24T00:42:44;4.40;;;4.00;;
16699;SDS011;8466;52.286;21.124;2023-06-24T00:45:13;4.10;;;3.53;;
16699;SDS011;8466;52.286;21.124;2023-06-24T00:47:43;5.95;;;4.25;;
16699;SDS011;8466;52.286;21.124;2023-06-24T00:50:12;4.05;;;3.65;;
16699;SDS011;8466;52.286;21.124;2023-06-24T00:52:40;4.13;;;3.83;;
16699;SDS011;8466;52.286;21.124;2023-06-24T00:55:10;4.47;;;4.07;;
16699;SDS011;8466;52.286;21.124;2023-06-24T00:57:39;4.05;;;3.65;;
16699;SDS011;8466;52.286;21.124;2023-06-24T01:00:11;4.40;;;4.00;;
16699;SDS011;8466;52.286;21.124;2023-06-24T01:02:43;5.07;;;3.92;;
16699;SDS011;8466;52.286;21.124;2023-06-24T01:05:12;4.68;;;3.70;;
16699;SDS011;8466;52.286;21.124;2023-06-24T01:07:41;4.10;;;3.80;;
16699;SDS011;8466;52.286;21.124;2023-06-24T01:10:10;3.92;;;3.63;;
16699;SDS011;8466;52.286;21.124;2023-06-24T01:12:40;3.95;;;3.50;;
16699;SDS011;8466;52.286;21.124;2023-06-24T01:15:12;5.30;;;3.75;;
16699;SDS011;8466;52.286;21.124;2023-06-24T01:17:43;4.00;;;3.70;;
16699;SDS011;8466;52.286;21.124;2023-06-24T01:20:21;4.38;;;3.97;;
16699;SDS011;8466;52.286;21.124;2023-06-24T01:29:24;4.80;;;3.88;;
16699;SDS011;8466;52.286;21.124;2023-06-24T01:32:13;4.45;;;4.00;;
16699;SDS011;8466;52.286;21.124;2023-06-24T01:34:48;3.83;;;3.53;;
16699;SDS011;8466;52.286;21.124;2023-06-24T01:37:25;4.32;;;3.88;;
16699;SDS011;8466;52.286;21.124;2023-06-24T01:39:57;4.30;;;3.90;;
16699;SDS011;8466;52.286;21.124;2023-06-24T01:42:35;3.85;;;3.55;;
16699;SDS011;8466;52.286;21.124;2023-06-24T01:45:06;4.43;;;4.07;;
16699;SDS011;8466;52.286;21.124;2023-06-24T01:47:39;3.70;;;3.40;;
16699;SDS011;8466;52.286;21.124;2023-06-24T01:50:11;4.45;;;4.05;;
16699;SDS011;8466;52.286;21.124;2023-06-24T01:52:41;4.15;;;3.83;;
16699;SDS011;8466;52.286;21.124;2023-06-24T01:55:14;4.55;;;4.10;;
16699;SDS011;8466;52.286;21.124;2023-06-24T01:57:46;4.55;;;3.95;;
16699;SDS011;8466;52.286;21.124;2023-06-24T02:00:18;4.40;;;4.00;;
16699;SDS011;8466;52.286;21.124;2023-06-24T02:02:52;4.40;;;4.00;;
16699;SDS011;8466;52.286;21.124;2023-06-24T02:05:22;4.57;;;4.18;;
16699;SDS011;8466;52.286;21.124;2023-06-24T02:07:53;4.55;;;4.15;;
16699;SDS011;8466;52.286;21.124;2023-06-24T02:10:23;5.10;;;4.18;;
16699;SDS011;8466;52.286;21.124;2023-06-24T02:12:52;5.63;;;4.35;;
16699;SDS011;8466;52.286;21.124;2023-06-24T02:15:22;5.82;;;5.00;;
16699;SDS011;8466;52.286;21.124;2023-06-24T02:17:52;4.65;;;4.22;;
16699;SDS011;8466;52.286;21.124;2023-06-24T02:20:23;5.00;;;4.47;;
16699;SDS011;8466;52.286;21.124;2023-06-24T02:22:54;5.85;;;4.38;;
16699;SDS011;8466;52.286;21.124;2023-06-24T02:25:25;6.50;;;5.13;;
16699;SDS011;8466;52.286;21.124;2023-06-24T02:27:55;5.30;;;4.80;;
16699;SDS011;8466;52.286;21.124;2023-06-24T02:30:24;5.13;;;4.68;;
16699;SDS011;8466;52.286;21.124;2023-06-24T02:32:55;5.80;;;4.65;;
16699;SDS011;8466;52.286;21.124;2023-06-24T02:35:24;6.03;;;5.03;;
16699;SDS011;8466;52.286;21.124;2023-06-24T02:37:52;6.00;;;5.50;;
16699;SDS011;8466;52.286;21.124;2023-06-24T02:40:21;5.28;;;4.80;;
16699;SDS011;8466;52.286;21.124;2023-06-24T02:42:50;4.85;;;4.45;;
16699;SDS011;8466;52.286;21.124;2023-06-24T02:45:18;5.50;;;4.95;;
16699;SDS011;8466;52.286;21.124;2023-06-24T02:47:47;6.05;;;5.40;;
16699;SDS011;8466;52.286;21.124;2023-06-24T02:50:19;5.53;;;4.70;;
16699;SDS011;8466;52.286;21.124;2023-06-24T02:52:49;7.25;;;6.22;;
16699;SDS011;8466;52.286;21.124;2023-06-24T02:55:19;59.30;;;32.00;;
16699;SDS011;8466;52.286;21.124;2023-06-24T02:57:49;82.78;;;40.08;;
16699;SDS011;8466;52.286;21.124;2023-06-24T03:00:18;16.45;;;10.38;;
16699;SDS011;8466;52.286;21.124;2023-06-24T03:02:47;8.40;;;6.60;;
16699;SDS011;8466;52.286;21.124;2023-06-24T03:05:19;6.28;;;5.60;;
16699;SDS011;8466;52.286;21.124;2023-06-24T03:07:52;7.57;;;5.15;;
16699;SDS011;8466;52.286;21.124;2023-06-24T03:10:20;4.97;;;4.47;;
16699;SDS011;8466;52.286;21.124;2023-06-24T03:12:51;6.22;;;5.10;;
16699;SDS011;8466;52.286;21.124;2023-06-24T03:15:20;8.70;;;5.38;;
16699;SDS011;8466;52.286;21.124;2023-06-24T03:17:53;6.13;;;5.32;;
16699;SDS011;8466;52.286;21.124;2023-06-24T03:20:24;5.70;;;5.20;;
16699;SDS011;8466;52.286;21.124;2023-06-24T03:22:53;5.40;;;4.90;;
16699;SDS011;8466;52.286;21.124;2023-06-24T03:25:22;6.22;;;5.50;;
16699;SDS011;8466;52.286;21.124;2023-06-24T03:27:51;5.68;;;5.18;;
16699;SDS011;8466;52.286;21.124;2023-06-24T03:30:19;5.78;;;5.15;;
16699;SDS011;8466;52.286;21.124;2023-06-24T03:32:48;5.50;;;5.00;;
16699;SDS011;8466;52.286;21.124;2023-06-24T03:35:17;7.00;;;5.13;;
16699;SDS011;8466;52.286;21.124;2023-06-24T03:37:47;5.60;;;5.07;;
16699;SDS011;8466;52.286;21.124;2023-06-24T03:40:16;5.35;;;4.85;;
16699;SDS011;8466;52.286;21.124;2023-06-24T03:42:45;5.40;;;4.88;;
16699;SDS011;8466;52.286;21.124;2023-06-24T03:45:13;7.53;;;5.93;;
16699;SDS011;8466;52.286;21.124;2023-06-24T03:47:42;5.18;;;4.45;;
16699;SDS011;8466;52.286;21.124;2023-06-24T03:50:11;5.57;;;5.07;;
16699;SDS011;8466;52.286;21.124;2023-06-24T03:52:39;6.55;;;5.85;;
16699;SDS011;8466;52.286;21.124;2023-06-24T03:55:10;6.05;;;5.43;;
16699;SDS011;8466;52.286;21.124;2023-06-24T03:57:39;5.38;;;4.88;;
16699;SDS011;8466;52.286;21.124;2023-06-24T04:00:08;5.13;;;4.68;;
16699;SDS011;8466;52.286;21.124;2023-06-24T04:02:42;6.00;;;5.40;;
16699;SDS011;8466;52.286;21.124;2023-06-24T04:05:12;5.68;;;5.10;;
16699;SDS011;8466;52.286;21.124;2023-06-24T04:07:40;5.13;;;4.72;;
16699;SDS011;8466;52.286;21.124;2023-06-24T04:10:15;5.30;;;4.78;;
16699;SDS011;8466;52.286;21.124;2023-06-24T04:12:44;8.27;;;7.40;;
16699;SDS011;8466;52.286;21.124;2023-06-24T04:15:13;5.57;;;5.07;;
16699;SDS011;8466;52.286;21.124;2023-06-24T04:17:42;5.82;;;5.25;;
16699;SDS011;8466;52.286;21.124;2023-06-24T04:20:11;5.43;;;4.93;;
16699;SDS011;8466;52.286;21.124;2023-06-24T04:22:40;5.20;;;4.40;;
16699;SDS011;8466;52.286;21.124;2023-06-24T04:25:09;5.00;;;4.60;;
16699;SDS011;8466;52.286;21.124;2023-06-24T04:27:40;5.65;;;5.15;;
16699;SDS011;8466;52.286;21.124;2023-06-24T04:30:09;5.38;;;4.88;;
16699;SDS011;8466;52.286;21.124;2023-06-24T04:32:39;6.45;;;5.30;;
16699;SDS011;8466;52.286;21.124;2023-06-24T04:35:07;5.07;;;4.68;;
16699;SDS011;8466;52.286;21.124;2023-06-24T04:37:36;5.15;;;4.65;;
16699;SDS011;8466;52.286;21.124;2023-06-24T04:40:05;5.13;;;4.50;;
16699;SDS011;8466;52.286;21.124;2023-06-24T04:42:34;6.32;;;4.80;;
16699;SDS011;8466;52.286;21.124;2023-06-24T04:45:05;6.53;;;4.60;;
16699;SDS011;8466;52.286;21.124;2023-06-24T04:47:34;4.75;;;4.25;;
16699;SDS011;8466;52.286;21.124;2023-06-24T04:50:03;4.70;;;4.30;;
16699;SDS011;8466;52.286;21.124;2023-06-24T04:52:33;4.80;;;4.30;;
16699;SDS011;8466;52.286;21.124;2023-06-24T04:55:01;4.82;;;3.97;;
16699;SDS011;8466;52.286;21.124;2023-06-24T04:57:31;5.22;;;4.22;;
16699;SDS011;8466;52.286;21.124;2023-06-24T05:00:01;6.10;;;4.18;;
16699;SDS011;8466;52.286;21.124;2023-06-24T05:02:32;6.95;;;4.78;;
16699;SDS011;8466;52.286;21.124;2023-06-24T05:05:01;7.00;;;4.57;;
16699;SDS011;8466;52.286;21.124;2023-06-24T05:07:30;5.57;;;4.32;;
16699;SDS011;8466;52.286;21.124;2023-06-24T05:09:59;6.22;;;4.68;;
16699;SDS011;8466;52.286;21.124;2023-06-24T05:12:28;5.32;;;4.55;;
16699;SDS011;8466;52.286;21.124;2023-06-24T05:14:56;4.40;;;4.00;;
16699;SDS011;8466;52.286;21.124;2023-06-24T05:17:25;4.88;;;4.47;;
16699;SDS011;8466;52.286;21.124;2023-06-24T05:19:55;5.03;;;4.53;;
16699;SDS011;8466;52.286;21.124;2023-06-24T05:22:25;8.52;;;4.30;;
16699;SDS011;8466;52.286;21.124;2023-06-24T05:24:53;6.10;;;5.50;;
16699;SDS011;8466;52.286;21.124;2023-06-24T05:27:22;4.57;;;4.13;;
16699;SDS011;8466;52.286;21.124;2023-06-24T05:29:51;4.05;;;3.67;;
16699;SDS011;8466;52.286;21.124;2023-06-24T05:32:19;4.03;;;3.67;;
16699;SDS011;8466;52.286;21.124;2023-06-24T05:34:48;10.70;;;8.38;;
16699;SDS011;8466;52.286;21.124;2023-06-24T05:37:18;10.65;;;8.93;;
16699;SDS011;8466;52.286;21.124;2023-06-24T05:39:47;4.75;;;4.05;;
16699;SDS011;8466;52.286;21.124;2023-06-24T05:42:16;4.65;;;4.25;;
16699;SDS011;8466;52.286;21.124;2023-06-24T05:44:44;9.60;;;8.60;;
16699;SDS011;8466;52.286;21.124;2023-06-24T05:47:13;11.15;;;10.00;;
16699;SDS011;8466;52.286;21.124;2023-06-24T05:49:42;7.25;;;4.80;;
16699;SDS011;8466;52.286;21.124;2023-06-24T05:52:11;4.18;;;3.78;;
16699;SDS011;8466;52.286;21.124;2023-06-24T05:54:41;4.32;;;3.90;;
16699;SDS011;8466;52.286;21.124;2023-06-24T05:57:10;3.50;;;3.20;;
16699;SDS011;8466;52.286;21.124;2023-06-24T05:59:39;3.53;;;3.22;;
16699;SDS011;8466;52.286;21.124;2023-06-24T06:02:08;3.65;;;3.35;;
16699;SDS011;8466;52.286;21.124;2023-06-24T06:04:37;4.30;;;3.90;;
16699;SDS011;8466;52.286;21.124;2023-06-24T06:07:06;5.18;;;4.05;;
16699;SDS011;8466;52.286;21.124;2023-06-24T06:09:35;4.40;;;4.00;;
16699;SDS011;8466;52.286;21.124;2023-06-24T06:12:06;4.38;;;3.97;;
16699;SDS011;8466;52.286;21.124;2023-06-24T06:14:35;3.92;;;3.65;;
16699;SDS011;8466;52.286;21.124;2023-06-24T06:17:04;4.28;;;3.83;;
16699;SDS011;8466;52.286;21.124;2023-06-24T06:19:34;4.22;;;3.92;;
16699;SDS011;8466;52.286;21.124;2023-06-24T06:22:02;3.85;;;3.55;;
16699;SDS011;8466;52.286;21.124;2023-06-24T06:24:31;6.32;;;3.50;;
16699;SDS011;8466;52.286;21.124;2023-06-24T06:27:00;5.63;;;3.60;;
16699;SDS011;8466;52.286;21.124;2023-06-24T06:29:30;4.00;;;3.70;;
16699;SDS011;8466;52.286;21.124;2023-06-24T06:31:59;4.30;;;4.00;;
16699;SDS011;8466;52.286;21.124;2023-06-24T06:34:28;5.35;;;3.92;;
16699;SDS011;8466;52.286;21.124;2023-06-24T06:36:56;4.82;;;3.67;;
16699;SDS011;8466;52.286;21.124;2023-06-24T06:39:25;4.10;;;3.70;;
16699;SDS011;8466;52.286;21.124;2023-06-24T06:41:55;3.78;;;3.47;;
16699;SDS011;8466;52.286;21.124;2023-06-24T06:44:25;4.07;;;3.33;;
16699;SDS011;8466;52.286;21.124;2023-06-24T06:46:56;3.92;;;3.28;;
16699;SDS011;8466;52.286;21.124;2023-06-24T06:49:24;4.20;;;3.78;;
16699;SDS011;8466;52.286;21.124;2023-06-24T06:51:53;6.53;;;3.72;;
16699;SDS011;8466;52.286;21.124;2023-06-24T06:54:25;3.63;;;3.33;;
16699;SDS011;8466;52.286;21.124;2023-06-24T07:04:35;3.70;;;3.40;;
16699;SDS011;8466;52.286;21.124;2023-06-24T07:07:04;4.28;;;3.72;;
16699;SDS011;8466;52.286;21.124;2023-06-24T07:09:33;4.53;;;3.75;;
16699;SDS011;8466;52.286;21.124;2023-06-24T07:12:02;4.95;;;3.72;;
16699;SDS011;8466;52.286;21.124;2023-06-24T07:14:31;3.78;;;3.47;;
16699;SDS011;8466;52.286;21.124;2023-06-24T07:17:06;4.47;;;4.07;;
16699;SDS011;8466;52.286;21.124;2023-06-24T07:19:37;3.72;;;3.30;;
16699;SDS011;8466;52.286;21.124;2023-06-24T07:22:06;3.42;;;3.20;;
16699;SDS011;8466;52.286;21.124;2023-06-24T07:24:37;6.60;;;4.15;;
16699;SDS011;8466;52.286;21.124;2023-06-24T07:27:06;4.20;;;3.50;;
16699;SDS011;8466;52.286;21.124;2023-06-24T07:29:36;3.83;;;3.53;;
16699;SDS011;8466;52.286;21.124;2023-06-24T07:32:05;4.35;;;3.80;;
16699;SDS011;8466;52.286;21.124;2023-06-24T07:34:42;3.90;;;3.60;;
16699;SDS011;8466;52.286;21.124;2023-06-24T07:37:14;5.33;;;3.70;;
16699;SDS011;8466;52.286;21.124;2023-06-24T07:39:50;3.53;;;3.20;;
16699;SDS011;8466;52.286;21.124;2023-06-24T07:42:19;5.18;;;3.13;;
16699;SDS011;8466;52.286;21.124;2023-06-24T07:44:48;3.30;;;3.00;;
16699;SDS011;8466;52.286;21.124;2023-06-24T07:47:17;3.72;;;3.35;;
16699;SDS011;8466;52.286;21.124;2023-06-24T07:49:48;4.28;;;3.42;;
16699;SDS011;8466;52.286;21.124;2023-06-24T07:52:16;3.60;;;3.30;;
16699;SDS011;8466;52.286;21.124;2023-06-24T07:54:45;4.18;;;3.03;;
16699;SDS011;8466;52.286;21.124;2023-06-24T07:57:14;3.90;;;3.05;;
16699;SDS011;8466;52.286;21.124;2023-06-24T07:59:43;3.30;;;3.10;;
16699;SDS011;8466;52.286;21.124;2023-06-24T08:02:12;4.07;;;2.90;;
16699;SDS011;8466;52.286;21.124;2023-06-24T08:04:41;3.53;;;3.22;;
16699;SDS011;8466;52.286;21.124;2023-06-24T08:07:12;3.33;;;3.00;;
16699;SDS011;8466;52.286;21.124;2023-06-24T08:09:41;2.90;;;2.70;;
16699;SDS011;8466;52.286;21.124;2023-06-24T08:12:10;3.40;;;3.10;;
16699;SDS011;8466;52.286;21.124;2023-06-24T08:14:39;3.80;;;3.28;;
16699;SDS011;8466;52.286;21.124;2023-06-24T08:17:08;4.18;;;3.42;;
16699;SDS011;8466;52.286;21.124;2023-06-24T08:19:37;3.88;;;3.20;;
16699;SDS011;8466;52.286;21.124;2023-06-24T08:22:06;3.53;;;3.10;;
16699;SDS011;8466;52.286;21.124;2023-06-24T08:24:39;5.28;;;3.00;;
16699;SDS011;8466;52.286;21.124;2023-06-24T08:27:08;4.32;;;3.15;;
16699;SDS011;8466;52.286;21.124;2023-06-24T08:29:37;8.35;;;2.88;;
16699;SDS011;8466;52.286;21.124;2023-06-24T08:32:06;3.30;;;3.00;;
16699;SDS011;8466;52.286;21.124;2023-06-24T08:34:35;6.13;;;3.00;;
16699;SDS011;8466;52.286;21.124;2023-06-24T08:37:04;3.20;;;2.90;;
16699;SDS011;8466;52.286;21.124;2023-06-24T08:39:33;2.85;;;2.65;;
16699;SDS011;8466;52.286;21.124;2023-06-24T08:42:04;5.22;;;2.90;;
16699;SDS011;8466;52.286;21.124;2023-06-24T08:44:33;5.35;;;3.00;;
16699;SDS011;8466;52.286;21.124;2023-06-24T08:47:02;3.13;;;2.83;;
16699;SDS011;8466;52.286;21.124;2023-06-24T08:49:31;3.28;;;2.78;;
16699;SDS011;8466;52.286;21.124;2023-06-24T08:52:03;2.90;;;2.70;;
16699;SDS011;8466;52.286;21.124;2023-06-24T08:54:36;4.22;;;2.55;;
16699;SDS011;8466;52.286;21.124;2023-06-24T08:57:07;4.00;;;2.67;;
16699;SDS011;8466;52.286;21.124;2023-06-24T08:59:41;6.03;;;3.05;;
16699;SDS011;8466;52.286;21.124;2023-06-24T09:02:10;3.00;;;2.58;;
16699;SDS011;8466;52.286;21.124;2023-06-24T09:04:40;2.80;;;2.60;;
16699;SDS011;8466;52.286;21.124;2023-06-24T09:07:09;3.00;;;2.70;;
16699;SDS011;8466;52.286;21.124;2023-06-24T09:09:41;3.20;;;2.90;;
16699;SDS011;8466;52.286;21.124;2023-06-24T09:12:13;3.40;;;3.10;;
16699;SDS011;8466;52.286;21.124;2023-06-24T09:14:47;3.30;;;2.80;;
16699;SDS011;8466;52.286;21.124;2023-06-24T09:17:17;6.97;;;2.80;;
16699;SDS011;8466;52.286;21.124;2023-06-24T09:19:49;3.70;;;3.08;;
16699;SDS011;8466;52.286;21.124;2023-06-24T09:22:18;3.72;;;3.35;;
16699;SDS011;8466;52.286;21.124;2023-06-24T09:24:47;4.82;;;2.83;;
16699;SDS011;8466;52.286;21.124;2023-06-24T09:27:18;5.35;;;2.92;;
16699;SDS011;8466;52.286;21.124;2023-06-24T09:29:48;3.42;;;2.67;;
16699;SDS011;8466;52.286;21.124;2023-06-24T09:32:17;3.60;;;3.30;;
16699;SDS011;8466;52.286;21.124;2023-06-24T09:34:46;3.83;;;3.10;;
16699;SDS011;8466;52.286;21.124;2023-06-24T09:37:21;3.63;;;3.10;;
16699;SDS011;8466;52.286;21.124;2023-06-24T09:39:50;3.15;;;2.85;;
16699;SDS011;8466;52.286;21.124;2023-06-24T09:42:21;3.42;;;3.10;;
16699;SDS011;8466;52.286;21.124;2023-06-24T09:44:53;4.07;;;3.05;;
16699;SDS011;8466;52.286;21.124;2023-06-24T09:47:23;4.47;;;3.30;;
16699;SDS011;8466;52.286;21.124;2023-06-24T09:49:54;3.20;;;2.95;;
16699;SDS011;8466;52.286;21.124;2023-06-24T09:52:22;3.35;;;2.95;;
16699;SDS011;8466;52.286;21.124;2023-06-24T09:54:53;4.85;;;3.33;;
16699;SDS011;8466;52.286;21.124;2023-06-24T09:57:26;3.72;;;3.25;;
16699;SDS011;8466;52.286;21.124;2023-06-24T09:59:59;4.55;;;3.13;;
16699;SDS011;8466;52.286;21.124;2023-06-24T10:02:28;3.60;;;3.30;;
16699;SDS011;8466;52.286;21.124;2023-06-24T10:04:59;3.42;;;3.20;;
16699;SDS011;8466;52.286;21.124;2023-06-24T10:07:28;4.70;;;3.45;;
16699;SDS011;8466;52.286;21.124;2023-06-24T10:09:58;3.50;;;3.20;;
16699;SDS011;8466;52.286;21.124;2023-06-24T10:12:28;4.20;;;3.30;;
16699;SDS011;8466;52.286;21.124;2023-06-24T10:14:59;3.30;;;3.00;;
16699;SDS011;8466;52.286;21.124;2023-06-24T10:17:29;4.60;;;3.47;;
16699;SDS011;8466;52.286;21.124;2023-06-24T10:19:58;4.07;;;3.28;;
16699;SDS011;8466;52.286;21.124;2023-06-24T10:22:32;3.40;;;3.10;;
16699;SDS011;8466;52.286;21.124;2023-06-24T10:25:05;4.20;;;3.10;;
16699;SDS011;8466;52.286;21.124;2023-06-24T10:27:42;3.70;;;3.30;;
16699;SDS011;8466;52.286;21.124;2023-06-24T10:30:16;3.10;;;2.90;;
16699;SDS011;8466;52.286;21.124;2023-06-24T10:32:51;3.35;;;3.05;;
16699;SDS011;8466;52.286;21.124;2023-06-24T10:35:22;3.30;;;3.03;;
16699;SDS011;8466;52.286;21.124;2023-06-24T10:37:57;3.83;;;3.50;;
16699;SDS011;8466;52.286;21.124;2023-06-24T10:40:34;5.72;;;2.90;;
16699;SDS011;8466;52.286;21.124;2023-06-24T10:46:07;2.92;;;2.72;;
16699;SDS011;8466;52.286;21.124;2023-06-24T10:48:43;3.30;;;2.90;;
16699;SDS011;8466;52.286;21.124;2023-06-24T10:51:12;5.95;;;3.13;;
16699;SDS011;8466;52.286;21.124;2023-06-24T10:53:43;3.75;;;3.10;;
16699;SDS011;8466;52.286;21.124;2023-06-24T10:56:12;3.03;;;2.83;;
16699;SDS011;8466;52.286;21.124;2023-06-24T10:58:45;4.93;;;3.20;;
16699;SDS011;8466;52.286;21.124;2023-06-24T11:01:23;4.47;;;3.20;;
16699;SDS011;8466;52.286;21.124;2023-06-24T11:03:52;3.88;;;3.33;;
16699;SDS011;8466;52.286;21.124;2023-06-24T11:06:21;3.50;;;3.20;;
16699;SDS011;8466;52.286;21.124;2023-06-24T11:08:50;3.60;;;3.00;;
16699;SDS011;8466;52.286;21.124;2023-06-24T11:11:19;5.45;;;3.03;;
16699;SDS011;8466;52.286;21.124;2023-06-24T11:13:50;4.85;;;3.30;;
16699;SDS011;8466;52.286;21.124;2023-06-24T11:16:21;3.80;;;3.50;;
16699;SDS011;8466;52.286;21.124;2023-06-24T11:18:50;4.35;;;3.50;;
16699;SDS011;8466;52.286;21.124;2023-06-24T11:21:19;5.45;;;3.40;;
16699;SDS011;8466;52.286;21.124;2023-06-24T11:23:48;3.63;;;3.33;;
16699;SDS011;8466;52.286;21.124;2023-06-24T11:26:17;3.10;;;2.80;;
16699;SDS011;8466;52.286;21.124;2023-06-24T11:28:47;3.95;;;3.45;;
16699;SDS011;8466;52.286;21.124;2023-06-24T11:31:19;4.85;;;3.20;;
16699;SDS011;8466;52.286;21.124;2023-06-24T11:33:53;4.72;;;3.75;;
16699;SDS011;8466;52.286;21.124;2023-06-24T11:36:23;3.67;;;3.28;;
16699;SDS011;8466;52.286;21.124;2023-06-24T11:38:52;5.00;;;3.75;;
16699;SDS011;8466;52.286;21.124;2023-06-24T11:41:21;7.00;;;4.70;;
16699;SDS011;8466;52.286;21.124;2023-06-24T11:43:53;6.32;;;4.10;;
16699;SDS011;8466;52.286;21.124;2023-06-24T11:46:25;3.92;;;3.60;;
16699;SDS011;8466;52.286;21.124;2023-06-24T11:49:02;3.85;;;3.50;;
16699;SDS011;8466;52.286;21.124;2023-06-24T11:51:32;4.03;;;3.33;;
16699;SDS011;8466;52.286;21.124;2023-06-24T11:54:01;3.65;;;3.35;;
16699;SDS011;8466;52.286;21.124;2023-06-24T11:56:34;7.80;;;3.70;;
16699;SDS011;8466;52.286;21.124;2023-06-24T11:59:04;3.97;;;3.42;;
16699;SDS011;8466;52.286;21.124;2023-06-24T12:01:35;5.38;;;3.65;;
16699;SDS011;8466;52.286;21.124;2023-06-24T12:04:09;4.18;;;3.78;;
16699;SDS011;8466;52.286;21.124;2023-06-24T12:06:38;5.05;;;4.03;;
16699;SDS011;8466;52.286;21.124;2023-06-24T12:09:09;4.25;;;3.83;;
16699;SDS011;8466;52.286;21.124;2023-06-24T12:11:39;6.85;;;3.55;;
16699;SDS011;8466;52.286;21.124;2023-06-24T12:14:08;4.57;;;3.72;;
16699;SDS011;8466;52.286;21.124;2023-06-24T12:16:39;5.55;;;3.40;;
16699;SDS011;8466;52.286;21.124;2023-06-24T12:19:08;4.07;;;3.70;;
16699;SDS011;8466;52.286;21.124;2023-06-24T12:21:39;4.35;;;3.95;;
16699;SDS011;8466;52.286;21.124;2023-06-24T12:24:10;4.28;;;3.80;;
16699;SDS011;8466;52.286;21.124;2023-06-24T12:26:40;6.47;;;4.05;;
16699;SDS011;8466;52.286;21.124;2023-06-24T12:29:09;5.45;;;3.70;;
16699;SDS011;8466;52.286;21.124;2023-06-24T12:31:40;6.72;;;4.40;;
16699;SDS011;8466;52.286;21.124;2023-06-24T12:34:09;6.30;;;5.35;;
16699;SDS011;8466;52.286;21.124;2023-06-24T12:36:38;5.22;;;4.30;;
16699;SDS011;8466;52.286;21.124;2023-06-24T12:39:07;4.40;;;4.00;;
16699;SDS011;8466;52.286;21.124;2023-06-24T12:41:36;5.20;;;4.53;;
16699;SDS011;8466;52.286;21.124;2023-06-24T12:44:05;4.22;;;3.83;;
16699;SDS011;8466;52.286;21.124;2023-06-24T12:46:33;4.85;;;3.72;;
16699;SDS011;8466;52.286;21.124;2023-06-24T12:49:04;4.50;;;3.92;;
16699;SDS011;8466;52.286;21.124;2023-06-24T12:51:33;3.88;;;3.50;;
16699;SDS011;8466;52.286;21.124;2023-06-24T12:54:02;3.75;;;3.30;;
16699;SDS011;8466;52.286;21.124;2023-06-24T12:56:31;4.57;;;3.42;;
16699;SDS011;8466;52.286;21.124;2023-06-24T12:59:00;4.10;;;3.70;;
16699;SDS011;8466;52.286;21.124;2023-06-24T13:01:29;3.75;;;3.35;;
16699;SDS011;8466;52.286;21.124;2023-06-24T13:03:58;3.55;;;3.25;;
16699;SDS011;8466;52.286;21.124;2023-06-24T13:06:29;4.40;;;3.63;;
16699;SDS011;8466;52.286;21.124;2023-06-24T13:08:58;4.75;;;3.58;;
16699;SDS011;8466;52.286;21.124;2023-06-24T13:11:27;5.90;;;3.85;;
16699;SDS011;8466;52.286;21.124;2023-06-24T13:13:56;4.63;;;2.72;;
16699;SDS011;8466;52.286;21.124;2023-06-24T13:16:25;4.03;;;3.63;;
16699;SDS011;8466;52.286;21.124;2023-06-24T13:18:54;5.22;;;3.58;;
16699;SDS011;8466;52.286;21.124;2023-06-24T13:21:24;4.30;;;3.17;;
16699;SDS011;8466;52.286;21.124;2023-06-24T13:23:54;3.10;;;2.90;;
16699;SDS011;8466;52.286;21.124;2023-06-24T13:26:23;4.88;;;4.00;;
16699;SDS011;8466;52.286;21.124;2023-06-24T13:28:55;4.63;;;3.80;;
16699;SDS011;8466;52.286;21.124;2023-06-24T13:31:24;3.92;;;3.60;;
16699;SDS011;8466;52.286;21.124;2023-06-24T13:33:53;4.78;;;3.30;;
16699;SDS011;8466;52.286;21.124;2023-06-24T13:36:29;3.60;;;3.30;;
16699;SDS011;8466;52.286;21.124;2023-06-24T13:39:04;4.00;;;3.63;;
16699;SDS011;8466;52.286;21.124;2023-06-24T13:41:34;4.00;;;3.40;;
16699;SDS011;8466;52.286;21.124;2023-06-24T13:44:03;4.45;;;3.25;;
16699;SDS011;8466;52.286;21.124;2023-06-24T13:46:34;6.45;;;3.60;;
16699;SDS011;8466;52.286;21.124;2023-06-24T13:49:05;4.03;;;3.63;;
16699;SDS011;8466;52.286;21.124;2023-06-24T13:51:34;5.75;;;3.88;;
16699;SDS011;8466;52.286;21.124;2023-06-24T13:54:04;5.57;;;3.63;;
16699;SDS011;8466;52.286;21.124;2023-06-24T13:56:33;4.88;;;4.38;;
16699;SDS011;8466;52.286;21.124;2023-06-24T13:59:02;3.45;;;3.15;;
16699;SDS011;8466;52.286;21.124;2023-06-24T14:01:31;4.82;;;3.60;;
16699;SDS011;8466;52.286;21.124;2023-06-24T14:04:00;6.53;;;3.30;;
16699;SDS011;8466;52.286;21.124;2023-06-24T14:06:29;3.42;;;3.13;;
16699;SDS011;8466;52.286;21.124;2023-06-24T14:08:59;3.20;;;2.97;;
16699;SDS011;8466;52.286;21.124;2023-06-24T14:11:29;2.97;;;2.75;;
16699;SDS011;8466;52.286;21.124;2023-06-24T14:13:58;3.55;;;3.25;;
16699;SDS011;8466;52.286;21.124;2023-06-24T14:16:27;4.50;;;2.90;;
16699;SDS011;8466;52.286;21.124;2023-06-24T14:18:56;6.65;;;3.20;;
16699;SDS011;8466;52.286;21.124;2023-06-24T14:21:25;3.67;;;3.25;;
16699;SDS011;8466;52.286;21.124;2023-06-24T14:24:10;3.53;;;3.22;;
16699;SDS011;8466;52.286;21.124;2023-06-24T14:26:44;3.47;;;3.17;;
16699;SDS011;8466;52.286;21.124;2023-06-24T14:29:15;3.88;;;3.20;;
16699;SDS011;8466;52.286;21.124;2023-06-24T14:31:44;3.37;;;3.07;;
16699;SDS011;8466;52.286;21.124;2023-06-24T14:34:13;3.75;;;3.30;;
16699;SDS011;8466;52.286;21.124;2023-06-24T14:36:43;4.38;;;3.55;;
16699;SDS011;8466;52.286;21.124;2023-06-24T14:39:13;3.65;;;3.35;;
16699;SDS011;8466;52.286;21.124;2023-06-24T14:41:45;3.95;;;3.58;;
16699;SDS011;8466;52.286;21.124;2023-06-24T14:44:13;3.30;;;3.00;;
16699;SDS011;8466;52.286;21.124;2023-06-24T14:46:42;3.33;;;3.03;;
16699;SDS011;8466;52.286;21.124;2023-06-24T14:49:11;3.78;;;3.30;;
16699;SDS011;8466;52.286;21.124;2023-06-24T14:51:40;4.70;;;3.17;;
16699;SDS011;8466;52.286;21.124;2023-06-24T14:54:09;5.90;;;3.30;;
16699;SDS011;8466;52.286;21.124;2023-06-24T14:56:37;4.28;;;3.65;;
16699;SDS011;8466;52.286;21.124;2023-06-24T14:59:08;3.70;;;3.40;;
16699;SDS011;8466;52.286;21.124;2023-06-24T15:01:38;3.70;;;3.40;;
16699;SDS011;8466;52.286;21.124;2023-06-24T15:04:07;3.55;;;3.25;;
16699;SDS011;8466;52.286;21.124;2023-06-24T15:06:35;3.90;;;3.60;;
16699;SDS011;8466;52.286;21.124;2023-06-24T15:09:05;3.92;;;3.55;;
16699;SDS011;8466;52.286;21.124;2023-06-24T15:11:34;3.67;;;3.38;;
16699;SDS011;8466;52.286;21.124;2023-06-24T15:14:02;4.00;;;3.60;;
16699;SDS011;8466;52.286;21.124;2023-06-24T15:16:33;5.03;;;4.00;;
16699;SDS011;8466;52.286;21.124;2023-06-24T15:19:02;5.60;;;4.60;;
16699;SDS011;8466;52.286;21.124;2023-06-24T15:21:31;6.72;;;4.40;;